sensor_id;sensor_type;location;lat;lon;timestamp;P1;durP1;ratioP1;P2;durP2;ratioP2
17524;SDS011;40431;52.198;9.902;2024-01-30T00:00:21;13.60;;;12.47;;
17524;SDS011;40431;52.198;9.902;2024-01-30T00:02:47;13.13;;;12.03;;
17524;SDS011;40431;52.198;9.902;2024-01-30T00:05:14;12.73;;;11.73;;
17524;SDS011;40431;52.198;9.902;2024-01-30T00:07:40;11.03;;;10.23;;
17524;SDS011;40431;52.198;9.902;2024-01-30T00:10:07;12.57;;;10.63;;
17524;SDS011;40431;52.198;9.902;2024-01-30T00:12:36;12.47;;;11.47;;
17524;SDS011;40431;52.198;9.902;2024-01-30T00:15:07;11.63;;;10.73;;
17524;SDS011;40431;52.198;9.902;2024-01-30T00:17:35;10.83;;;10.03;;
17524;SDS011;40431;52.198;9.902;2024-01-30T00:20:03;11.93;;;11.03;;
17524;SDS011;40431;52.198;9.902;2024-01-30T00:22:34;12.70;;;11.53;;
17524;SDS011;40431;52.198;9.902;2024-01-30T00:25:03;11.13;;;10.10;;
17524;SDS011;40431;52.198;9.902;2024-01-30T00:27:31;11.90;;;11.00;;
17524;SDS011;40431;52.198;9.902;2024-01-30T00:30:00;11.83;;;10.73;;
17524;SDS011;40431;52.198;9.902;2024-01-30T00:32:27;11.47;;;10.67;;
17524;SDS011;40431;52.198;9.902;2024-01-30T00:34:56;12.80;;;11.57;;
17524;SDS011;40431;52.198;9.902;2024-01-30T00:37:24;13.27;;;12.20;;
17524;SDS011;40431;52.198;9.902;2024-01-30T00:39:52;12.37;;;11.37;;
17524;SDS011;40431;52.198;9.902;2024-01-30T00:42:20;12.83;;;11.83;;
17524;SDS011;40431;52.198;9.902;2024-01-30T00:44:51;13.80;;;12.67;;
17524;SDS011;40431;52.198;9.902;2024-01-30T00:47:28;13.40;;;12.40;;
17524;SDS011;40431;52.198;9.902;2024-01-30T00:49:55;13.37;;;12.37;;
17524;SDS011;40431;52.198;9.902;2024-01-30T00:52:23;12.27;;;11.37;;
17524;SDS011;40431;52.198;9.902;2024-01-30T00:54:55;13.70;;;12.60;;
17524;SDS011;40431;52.198;9.902;2024-01-30T00:57:23;11.50;;;10.63;;
17524;SDS011;40431;52.198;9.902;2024-01-30T01:00:05;12.80;;;11.60;;
17524;SDS011;40431;52.198;9.902;2024-01-30T01:02:45;12.77;;;11.77;;
17524;SDS011;40431;52.198;9.902;2024-01-30T01:05:15;12.20;;;11.30;;
17524;SDS011;40431;52.198;9.902;2024-01-30T01:07:43;11.90;;;10.80;;
17524;SDS011;40431;52.198;9.902;2024-01-30T01:10:12;10.63;;;9.83;;
17524;SDS011;40431;52.198;9.902;2024-01-30T01:12:41;12.23;;;11.33;;
17524;SDS011;40431;52.198;9.902;2024-01-30T01:15:09;11.90;;;10.90;;
17524;SDS011;40431;52.198;9.902;2024-01-30T01:17:39;12.30;;;11.40;;
17524;SDS011;40431;52.198;9.902;2024-01-30T01:20:08;11.80;;;10.80;;
17524;SDS011;40431;52.198;9.902;2024-01-30T01:22:42;12.07;;;11.27;;
17524;SDS011;40431;52.198;9.902;2024-01-30T01:25:10;12.13;;;11.27;;
17524;SDS011;40431;52.198;9.902;2024-01-30T01:27:38;11.53;;;10.63;;
17524;SDS011;40431;52.198;9.902;2024-01-30T01:30:07;10.93;;;10.03;;
17524;SDS011;40431;52.198;9.902;2024-01-30T01:32:44;11.07;;;10.20;;
17524;SDS011;40431;52.198;9.902;2024-01-30T01:35:17;13.20;;;11.93;;
17524;SDS011;40431;52.198;9.902;2024-01-30T01:37:47;11.70;;;10.77;;
17524;SDS011;40431;52.198;9.902;2024-01-30T01:40:26;11.20;;;10.40;;
17524;SDS011;40431;52.198;9.902;2024-01-30T01:42:57;12.27;;;11.10;;
17524;SDS011;40431;52.198;9.902;2024-01-30T01:45:26;11.50;;;10.70;;
17524;SDS011;40431;52.198;9.902;2024-01-30T01:47:57;11.57;;;10.67;;
17524;SDS011;40431;52.198;9.902;2024-01-30T01:50:29;13.20;;;12.20;;
17524;SDS011;40431;52.198;9.902;2024-01-30T01:53:00;12.23;;;11.17;;
17524;SDS011;40431;52.198;9.902;2024-01-30T01:55:34;12.37;;;11.37;;
17524;SDS011;40431;52.198;9.902;2024-01-30T01:58:03;11.33;;;10.53;;
17524;SDS011;40431;52.198;9.902;2024-01-30T02:00:34;11.47;;;10.60;;
17524;SDS011;40431;52.198;9.902;2024-01-30T02:03:05;12.17;;;11.37;;
17524;SDS011;40431;52.198;9.902;2024-01-30T02:05:35;12.47;;;11.37;;
17524;SDS011;40431;52.198;9.902;2024-01-30T02:08:04;12.33;;;11.40;;
17524;SDS011;40431;52.198;9.902;2024-01-30T02:10:33;12.20;;;11.40;;
17524;SDS011;40431;52.198;9.902;2024-01-30T02:13:01;12.00;;;10.97;;
17524;SDS011;40431;52.198;9.902;2024-01-30T02:15:32;12.43;;;11.57;;
17524;SDS011;40431;52.198;9.902;2024-01-30T02:18:00;12.93;;;11.93;;
17524;SDS011;40431;52.198;9.902;2024-01-30T02:20:35;14.17;;;13.07;;
17524;SDS011;40431;52.198;9.902;2024-01-30T02:23:06;14.57;;;13.37;;
17524;SDS011;40431;52.198;9.902;2024-01-30T02:25:38;13.17;;;12.03;;
17524;SDS011;40431;52.198;9.902;2024-01-30T02:28:09;13.60;;;12.53;;
17524;SDS011;40431;52.198;9.902;2024-01-30T02:30:37;14.07;;;12.87;;
17524;SDS011;40431;52.198;9.902;2024-01-30T02:33:05;14.47;;;13.37;;
17524;SDS011;40431;52.198;9.902;2024-01-30T02:35:35;14.30;;;13.27;;
17524;SDS011;40431;52.198;9.902;2024-01-30T02:38:02;13.47;;;12.13;;
17524;SDS011;40431;52.198;9.902;2024-01-30T02:40:31;14.00;;;13.00;;
17524;SDS011;40431;52.198;9.902;2024-01-30T02:42:59;12.90;;;11.90;;
17524;SDS011;40431;52.198;9.902;2024-01-30T02:45:29;13.13;;;12.10;;
17524;SDS011;40431;52.198;9.902;2024-01-30T02:47:57;13.23;;;12.23;;
17524;SDS011;40431;52.198;9.902;2024-01-30T02:50:23;12.90;;;11.70;;
17524;SDS011;40431;52.198;9.902;2024-01-30T02:52:51;12.27;;;11.40;;
17524;SDS011;40431;52.198;9.902;2024-01-30T02:55:19;13.20;;;12.00;;
17524;SDS011;40431;52.198;9.902;2024-01-30T02:57:48;13.00;;;11.97;;
17524;SDS011;40431;52.198;9.902;2024-01-30T03:00:19;11.70;;;10.70;;
17524;SDS011;40431;52.198;9.902;2024-01-30T03:02:51;12.50;;;11.50;;
17524;SDS011;40431;52.198;9.902;2024-01-30T03:05:19;11.33;;;10.53;;
17524;SDS011;40431;52.198;9.902;2024-01-30T03:07:50;12.43;;;11.50;;
17524;SDS011;40431;52.198;9.902;2024-01-30T03:10:17;11.23;;;10.33;;
17524;SDS011;40431;52.198;9.902;2024-01-30T03:12:45;11.50;;;10.50;;
17524;SDS011;40431;52.198;9.902;2024-01-30T03:15:18;11.90;;;10.83;;
17524;SDS011;40431;52.198;9.902;2024-01-30T03:17:51;11.27;;;10.47;;
17524;SDS011;40431;52.198;9.902;2024-01-30T03:20:20;11.33;;;10.40;;
17524;SDS011;40431;52.198;9.902;2024-01-30T03:22:51;11.00;;;10.30;;
17524;SDS011;40431;52.198;9.902;2024-01-30T03:25:27;11.50;;;10.60;;
17524;SDS011;40431;52.198;9.902;2024-01-30T03:27:56;11.03;;;10.13;;
17524;SDS011;40431;52.198;9.902;2024-01-30T03:30:25;10.57;;;9.77;;
17524;SDS011;40431;52.198;9.902;2024-01-30T03:32:55;11.90;;;10.90;;
17524;SDS011;40431;52.198;9.902;2024-01-30T03:35:22;11.23;;;10.33;;
17524;SDS011;40431;52.198;9.902;2024-01-30T03:37:50;11.60;;;10.50;;
17524;SDS011;40431;52.198;9.902;2024-01-30T03:40:18;11.23;;;10.33;;
17524;SDS011;40431;52.198;9.902;2024-01-30T03:42:46;11.77;;;10.87;;
17524;SDS011;40431;52.198;9.902;2024-01-30T03:45:14;11.33;;;10.43;;
17524;SDS011;40431;52.198;9.902;2024-01-30T03:47:44;11.20;;;10.30;;
17524;SDS011;40431;52.198;9.902;2024-01-30T03:50:12;11.50;;;10.60;;
17524;SDS011;40431;52.198;9.902;2024-01-30T03:52:40;11.47;;;10.57;;
17524;SDS011;40431;52.198;9.902;2024-01-30T03:55:06;11.20;;;10.30;;
17524;SDS011;40431;52.198;9.902;2024-01-30T03:57:33;11.50;;;10.50;;
17524;SDS011;40431;52.198;9.902;2024-01-30T03:59:59;12.13;;;11.13;;
17524;SDS011;40431;52.198;9.902;2024-01-30T04:02:26;11.67;;;10.67;;
17524;SDS011;40431;52.198;9.902;2024-01-30T04:04:53;10.87;;;9.97;;
17524;SDS011;40431;52.198;9.902;2024-01-30T04:07:20;11.33;;;10.43;;
17524;SDS011;40431;52.198;9.902;2024-01-30T04:09:46;11.40;;;10.50;;
17524;SDS011;40431;52.198;9.902;2024-01-30T04:12:12;11.70;;;10.67;;
17524;SDS011;40431;52.198;9.902;2024-01-30T04:14:39;11.07;;;10.17;;
17524;SDS011;40431;52.198;9.902;2024-01-30T04:17:05;12.10;;;11.30;;
17524;SDS011;40431;52.198;9.902;2024-01-30T04:19:31;12.10;;;11.10;;
17524;SDS011;40431;52.198;9.902;2024-01-30T04:21:59;12.67;;;11.50;;
17524;SDS011;40431;52.198;9.902;2024-01-30T04:24:25;11.40;;;10.50;;
17524;SDS011;40431;52.198;9.902;2024-01-30T04:26:52;11.63;;;10.73;;
17524;SDS011;40431;52.198;9.902;2024-01-30T04:29:18;11.77;;;10.67;;
17524;SDS011;40431;52.198;9.902;2024-01-30T04:31:45;11.77;;;10.73;;
17524;SDS011;40431;52.198;9.902;2024-01-30T04:34:11;11.17;;;10.30;;
17524;SDS011;40431;52.198;9.902;2024-01-30T04:36:37;11.67;;;10.63;;
17524;SDS011;40431;52.198;9.902;2024-01-30T04:39:05;11.53;;;10.43;;
17524;SDS011;40431;52.198;9.902;2024-01-30T04:41:33;11.53;;;10.53;;
17524;SDS011;40431;52.198;9.902;2024-01-30T04:44:00;11.43;;;10.57;;
17524;SDS011;40431;52.198;9.902;2024-01-30T04:46:26;11.13;;;10.23;;
17524;SDS011;40431;52.198;9.902;2024-01-30T04:48:53;10.87;;;10.03;;
17524;SDS011;40431;52.198;9.902;2024-01-30T04:51:19;11.40;;;10.50;;
17524;SDS011;40431;52.198;9.902;2024-01-30T04:53:45;12.30;;;11.20;;
17524;SDS011;40431;52.198;9.902;2024-01-30T04:56:13;10.77;;;9.87;;
17524;SDS011;40431;52.198;9.902;2024-01-30T04:58:39;10.57;;;9.60;;
17524;SDS011;40431;52.198;9.902;2024-01-30T05:01:06;11.23;;;10.23;;
17524;SDS011;40431;52.198;9.902;2024-01-30T05:03:33;11.23;;;10.17;;
17524;SDS011;40431;52.198;9.902;2024-01-30T05:05:59;11.70;;;10.90;;
17524;SDS011;40431;52.198;9.902;2024-01-30T05:08:26;11.63;;;10.77;;
17524;SDS011;40431;52.198;9.902;2024-01-30T05:10:52;12.33;;;11.37;;
17524;SDS011;40431;52.198;9.902;2024-01-30T05:13:20;11.33;;;10.50;;
17524;SDS011;40431;52.198;9.902;2024-01-30T05:15:46;12.80;;;11.70;;
17524;SDS011;40431;52.198;9.902;2024-01-30T05:18:12;11.33;;;10.43;;
17524;SDS011;40431;52.198;9.902;2024-01-30T05:20:39;12.47;;;11.57;;
17524;SDS011;40431;52.198;9.902;2024-01-30T05:23:05;13.07;;;12.07;;
17524;SDS011;40431;52.198;9.902;2024-01-30T05:25:31;12.80;;;11.73;;
17524;SDS011;40431;52.198;9.902;2024-01-30T05:27:58;13.13;;;12.13;;
17524;SDS011;40431;52.198;9.902;2024-01-30T05:30:26;12.57;;;11.57;;
17524;SDS011;40431;52.198;9.902;2024-01-30T05:32:52;12.37;;;11.27;;
17524;SDS011;40431;52.198;9.902;2024-01-30T05:35:18;12.67;;;11.67;;
17524;SDS011;40431;52.198;9.902;2024-01-30T05:37:46;11.27;;;10.27;;
17524;SDS011;40431;52.198;9.902;2024-01-30T05:40:13;11.27;;;10.37;;
17524;SDS011;40431;52.198;9.902;2024-01-30T05:42:40;11.37;;;10.47;;
17524;SDS011;40431;52.198;9.902;2024-01-30T05:45:07;11.50;;;10.57;;
17524;SDS011;40431;52.198;9.902;2024-01-30T05:47:35;12.00;;;11.00;;
17524;SDS011;40431;52.198;9.902;2024-01-30T05:50:01;10.73;;;9.90;;
17524;SDS011;40431;52.198;9.902;2024-01-30T05:52:28;11.37;;;10.47;;
17524;SDS011;40431;52.198;9.902;2024-01-30T05:54:54;11.20;;;10.30;;
17524;SDS011;40431;52.198;9.902;2024-01-30T05:57:21;11.43;;;10.53;;
17524;SDS011;40431;52.198;9.902;2024-01-30T05:59:47;12.00;;;10.90;;
17524;SDS011;40431;52.198;9.902;2024-01-30T06:02:13;11.07;;;10.23;;
17524;SDS011;40431;52.198;9.902;2024-01-30T06:04:41;11.40;;;10.50;;
17524;SDS011;40431;52.198;9.902;2024-01-30T06:07:09;11.40;;;10.60;;
17524;SDS011;40431;52.198;9.902;2024-01-30T06:09:36;11.10;;;10.20;;
17524;SDS011;40431;52.198;9.902;2024-01-30T06:12:03;12.27;;;11.17;;
17524;SDS011;40431;52.198;9.902;2024-01-30T06:14:31;12.13;;;11.13;;
17524;SDS011;40431;52.198;9.902;2024-01-30T06:16:57;11.57;;;10.70;;
17524;SDS011;40431;52.198;9.902;2024-01-30T06:19:24;11.60;;;10.60;;
17524;SDS011;40431;52.198;9.902;2024-01-30T06:21:51;11.90;;;10.80;;
17524;SDS011;40431;52.198;9.902;2024-01-30T06:24:18;11.77;;;10.87;;
17524;SDS011;40431;52.198;9.902;2024-01-30T06:26:44;11.90;;;10.77;;
17524;SDS011;40431;52.198;9.902;2024-01-30T06:29:11;12.77;;;11.60;;
17524;SDS011;40431;52.198;9.902;2024-01-30T06:31:39;12.07;;;11.07;;
17524;SDS011;40431;52.198;9.902;2024-01-30T06:34:06;10.93;;;10.03;;
17524;SDS011;40431;52.198;9.902;2024-01-30T06:36:32;10.93;;;10.03;;
17524;SDS011;40431;52.198;9.902;2024-01-30T06:39:00;11.70;;;10.63;;
17524;SDS011;40431;52.198;9.902;2024-01-30T06:41:26;11.83;;;10.93;;
17524;SDS011;40431;52.198;9.902;2024-01-30T06:43:53;11.30;;;10.40;;
17524;SDS011;40431;52.198;9.902;2024-01-30T06:46:19;11.77;;;10.90;;
17524;SDS011;40431;52.198;9.902;2024-01-30T06:48:46;10.67;;;9.87;;
17524;SDS011;40431;52.198;9.902;2024-01-30T06:51:12;11.97;;;10.70;;
17524;SDS011;40431;52.198;9.902;2024-01-30T06:53:38;11.10;;;10.23;;
17524;SDS011;40431;52.198;9.902;2024-01-30T06:56:06;11.23;;;10.33;;
17524;SDS011;40431;52.198;9.902;2024-01-30T06:58:32;11.70;;;10.90;;
17524;SDS011;40431;52.198;9.902;2024-01-30T07:00:59;11.83;;;10.93;;
17524;SDS011;40431;52.198;9.902;2024-01-30T07:03:25;11.20;;;10.40;;
17524;SDS011;40431;52.198;9.902;2024-01-30T07:05:51;12.40;;;11.27;;
17524;SDS011;40431;52.198;9.902;2024-01-30T07:08:18;11.97;;;11.07;;
17524;SDS011;40431;52.198;9.902;2024-01-30T07:10:44;10.87;;;10.07;;
17524;SDS011;40431;52.198;9.902;2024-01-30T07:13:12;12.20;;;11.13;;
17524;SDS011;40431;52.198;9.902;2024-01-30T07:15:41;11.33;;;10.53;;
17524;SDS011;40431;52.198;9.902;2024-01-30T07:18:07;11.97;;;10.97;;
17524;SDS011;40431;52.198;9.902;2024-01-30T07:20:34;11.03;;;10.03;;
17524;SDS011;40431;52.198;9.902;2024-01-30T07:23:01;10.70;;;9.90;;
17524;SDS011;40431;52.198;9.902;2024-01-30T07:25:28;10.67;;;9.87;;
17524;SDS011;40431;52.198;9.902;2024-01-30T07:27:54;10.93;;;10.13;;
17524;SDS011;40431;52.198;9.902;2024-01-30T07:30:22;11.53;;;10.60;;
17524;SDS011;40431;52.198;9.902;2024-01-30T07:32:49;11.00;;;10.20;;
17524;SDS011;40431;52.198;9.902;2024-01-30T07:35:15;10.80;;;9.90;;
17524;SDS011;40431;52.198;9.902;2024-01-30T07:37:41;11.60;;;10.70;;
17524;SDS011;40431;52.198;9.902;2024-01-30T07:40:08;11.70;;;10.70;;
17524;SDS011;40431;52.198;9.902;2024-01-30T07:42:35;12.33;;;11.20;;
17524;SDS011;40431;52.198;9.902;2024-01-30T07:45:01;11.00;;;10.13;;
17524;SDS011;40431;52.198;9.902;2024-01-30T07:47:29;12.40;;;11.13;;
17524;SDS011;40431;52.198;9.902;2024-01-30T07:49:56;12.37;;;11.27;;
17524;SDS011;40431;52.198;9.902;2024-01-30T07:52:22;13.03;;;12.03;;
17524;SDS011;40431;52.198;9.902;2024-01-30T07:54:48;12.30;;;11.23;;
17524;SDS011;40431;52.198;9.902;2024-01-30T07:57:15;11.20;;;10.40;;
17524;SDS011;40431;52.198;9.902;2024-01-30T07:59:41;13.27;;;11.10;;
17524;SDS011;40431;52.198;9.902;2024-01-30T08:02:09;11.03;;;10.33;;
17524;SDS011;40431;52.198;9.902;2024-01-30T08:04:38;10.83;;;9.93;;
17524;SDS011;40431;52.198;9.902;2024-01-30T08:07:07;11.33;;;10.53;;
17524;SDS011;40431;52.198;9.902;2024-01-30T08:09:35;12.30;;;11.20;;
17524;SDS011;40431;52.198;9.902;2024-01-30T08:12:03;11.73;;;10.83;;
17524;SDS011;40431;52.198;9.902;2024-01-30T08:14:31;12.30;;;11.20;;
17524;SDS011;40431;52.198;9.902;2024-01-30T08:16:59;12.30;;;11.40;;
17524;SDS011;40431;52.198;9.902;2024-01-30T08:19:26;13.00;;;11.67;;
17524;SDS011;40431;52.198;9.902;2024-01-30T08:21:58;13.23;;;12.23;;
17524;SDS011;40431;52.198;9.902;2024-01-30T08:24:26;13.50;;;12.50;;
17524;SDS011;40431;52.198;9.902;2024-01-30T08:26:53;13.07;;;11.97;;
17524;SDS011;40431;52.198;9.902;2024-01-30T08:29:20;12.53;;;11.53;;
17524;SDS011;40431;52.198;9.902;2024-01-30T08:31:48;11.90;;;11.00;;
17524;SDS011;40431;52.198;9.902;2024-01-30T08:34:16;12.90;;;11.80;;
17524;SDS011;40431;52.198;9.902;2024-01-30T08:36:43;13.13;;;11.93;;
17524;SDS011;40431;52.198;9.902;2024-01-30T08:39:13;13.23;;;12.30;;
17524;SDS011;40431;52.198;9.902;2024-01-30T08:41:41;12.53;;;11.43;;
17524;SDS011;40431;52.198;9.902;2024-01-30T08:44:12;12.60;;;11.60;;
17524;SDS011;40431;52.198;9.902;2024-01-30T08:46:40;13.20;;;12.00;;
17524;SDS011;40431;52.198;9.902;2024-01-30T08:49:09;13.00;;;11.90;;
17524;SDS011;40431;52.198;9.902;2024-01-30T08:51:38;12.53;;;11.53;;
17524;SDS011;40431;52.198;9.902;2024-01-30T08:54:06;12.87;;;11.70;;
17524;SDS011;40431;52.198;9.902;2024-01-30T08:56:35;12.83;;;11.83;;
17524;SDS011;40431;52.198;9.902;2024-01-30T08:59:03;12.43;;;11.33;;
17524;SDS011;40431;52.198;9.902;2024-01-30T09:01:29;13.23;;;11.93;;
17524;SDS011;40431;52.198;9.902;2024-01-30T09:03:56;12.63;;;11.43;;
17524;SDS011;40431;52.198;9.902;2024-01-30T09:06:22;12.10;;;11.10;;
17524;SDS011;40431;52.198;9.902;2024-01-30T09:08:49;12.50;;;11.40;;
17524;SDS011;40431;52.198;9.902;2024-01-30T09:11:15;11.20;;;10.30;;
17524;SDS011;40431;52.198;9.902;2024-01-30T09:13:43;12.07;;;11.07;;
17524;SDS011;40431;52.198;9.902;2024-01-30T09:16:09;10.43;;;9.53;;
17524;SDS011;40431;52.198;9.902;2024-01-30T09:18:35;10.93;;;10.03;;
17524;SDS011;40431;52.198;9.902;2024-01-30T09:21:02;10.37;;;9.37;;
17524;SDS011;40431;52.198;9.902;2024-01-30T09:23:28;10.23;;;9.23;;
17524;SDS011;40431;52.198;9.902;2024-01-30T09:25:55;10.07;;;9.37;;
17524;SDS011;40431;52.198;9.902;2024-01-30T09:28:23;10.23;;;9.43;;
17524;SDS011;40431;52.198;9.902;2024-01-30T09:30:53;10.87;;;10.00;;
17524;SDS011;40431;52.198;9.902;2024-01-30T09:33:21;10.07;;;9.37;;
17524;SDS011;40431;52.198;9.902;2024-01-30T09:35:51;11.03;;;9.93;;
17524;SDS011;40431;52.198;9.902;2024-01-30T09:38:21;11.63;;;10.60;;
17524;SDS011;40431;52.198;9.902;2024-01-30T09:40:50;11.30;;;10.50;;
17524;SDS011;40431;52.198;9.902;2024-01-30T09:43:22;11.30;;;10.30;;
17524;SDS011;40431;52.198;9.902;2024-01-30T09:45:53;9.47;;;8.73;;
17524;SDS011;40431;52.198;9.902;2024-01-30T09:48:22;10.33;;;9.43;;
17524;SDS011;40431;52.198;9.902;2024-01-30T09:50:50;10.00;;;9.10;;
17524;SDS011;40431;52.198;9.902;2024-01-30T09:53:19;9.53;;;8.70;;
17524;SDS011;40431;52.198;9.902;2024-01-30T09:55:47;10.27;;;9.30;;
17524;SDS011;40431;52.198;9.902;2024-01-30T09:58:19;10.40;;;9.50;;
17524;SDS011;40431;52.198;9.902;2024-01-30T10:00:49;10.33;;;9.33;;
17524;SDS011;40431;52.198;9.902;2024-01-30T10:03:20;10.07;;;9.27;;
17524;SDS011;40431;52.198;9.902;2024-01-30T10:05:51;10.77;;;9.80;;
17524;SDS011;40431;52.198;9.902;2024-01-30T10:08:19;10.53;;;9.53;;
17524;SDS011;40431;52.198;9.902;2024-01-30T10:10:50;10.03;;;9.33;;
17524;SDS011;40431;52.198;9.902;2024-01-30T10:13:17;10.50;;;9.43;;
17524;SDS011;40431;52.198;9.902;2024-01-30T10:15:45;9.63;;;8.83;;
17524;SDS011;40431;52.198;9.902;2024-01-30T10:18:16;8.80;;;8.10;;
17524;SDS011;40431;52.198;9.902;2024-01-30T10:20:45;8.73;;;8.13;;
17524;SDS011;40431;52.198;9.902;2024-01-30T10:23:13;10.00;;;9.20;;
17524;SDS011;40431;52.198;9.902;2024-01-30T10:25:40;10.13;;;9.20;;
17524;SDS011;40431;52.198;9.902;2024-01-30T10:28:09;10.03;;;9.03;;
17524;SDS011;40431;52.198;9.902;2024-01-30T10:30:36;10.93;;;9.77;;
17524;SDS011;40431;52.198;9.902;2024-01-30T10:33:04;11.80;;;10.70;;
17524;SDS011;40431;52.198;9.902;2024-01-30T10:35:33;10.43;;;9.63;;
17524;SDS011;40431;52.198;9.902;2024-01-30T10:38:02;10.07;;;9.27;;
17524;SDS011;40431;52.198;9.902;2024-01-30T10:40:33;10.53;;;9.73;;
17524;SDS011;40431;52.198;9.902;2024-01-30T10:43:03;9.77;;;9.03;;
17524;SDS011;40431;52.198;9.902;2024-01-30T10:45:32;12.70;;;7.97;;
17524;SDS011;40431;52.198;9.902;2024-01-30T10:48:05;10.27;;;9.37;;
17524;SDS011;40431;52.198;9.902;2024-01-30T10:50:36;10.90;;;9.80;;
17524;SDS011;40431;52.198;9.902;2024-01-30T10:53:12;10.73;;;9.83;;
17524;SDS011;40431;52.198;9.902;2024-01-30T10:55:49;11.07;;;9.93;;
17524;SDS011;40431;52.198;9.902;2024-01-30T10:58:25;10.93;;;9.53;;
17524;SDS011;40431;52.198;9.902;2024-01-30T11:00:54;8.93;;;8.23;;
17524;SDS011;40431;52.198;9.902;2024-01-30T11:03:22;10.17;;;9.10;;
17524;SDS011;40431;52.198;9.902;2024-01-30T11:05:51;10.20;;;9.23;;
17524;SDS011;40431;52.198;9.902;2024-01-30T11:08:24;10.30;;;9.40;;
17524;SDS011;40431;52.198;9.902;2024-01-30T11:10:55;9.50;;;8.60;;
17524;SDS011;40431;52.198;9.902;2024-01-30T11:13:27;9.23;;;8.43;;
17524;SDS011;40431;52.198;9.902;2024-01-30T11:15:55;10.40;;;9.43;;
17524;SDS011;40431;52.198;9.902;2024-01-30T11:18:29;13.87;;;9.27;;
17524;SDS011;40431;52.198;9.902;2024-01-30T11:21:00;26.30;;;23.73;;
17524;SDS011;40431;52.198;9.902;2024-01-30T11:23:29;15.40;;;14.30;;
17524;SDS011;40431;52.198;9.902;2024-01-30T11:25:56;10.10;;;9.30;;
17524;SDS011;40431;52.198;9.902;2024-01-30T11:28:23;14.53;;;13.43;;
17524;SDS011;40431;52.198;9.902;2024-01-30T11:30:50;11.97;;;11.03;;
17524;SDS011;40431;52.198;9.902;2024-01-30T11:33:26;9.67;;;8.87;;
17524;SDS011;40431;52.198;9.902;2024-01-30T11:35:55;12.80;;;11.90;;
17524;SDS011;40431;52.198;9.902;2024-01-30T11:38:23;13.83;;;9.37;;
17524;SDS011;40431;52.198;9.902;2024-01-30T11:40:53;9.13;;;8.43;;
17524;SDS011;40431;52.198;9.902;2024-01-30T11:43:20;9.27;;;8.47;;
17524;SDS011;40431;52.198;9.902;2024-01-30T11:45:47;10.13;;;9.20;;
17524;SDS011;40431;52.198;9.902;2024-01-30T11:48:13;8.90;;;8.27;;
17524;SDS011;40431;52.198;9.902;2024-01-30T11:50:40;10.97;;;8.77;;
17524;SDS011;40431;52.198;9.902;2024-01-30T11:53:06;9.30;;;8.47;;
17524;SDS011;40431;52.198;9.902;2024-01-30T11:55:33;14.17;;;8.57;;
17524;SDS011;40431;52.198;9.902;2024-01-30T11:58:02;12.03;;;10.20;;
17524;SDS011;40431;52.198;9.902;2024-01-30T12:00:30;15.20;;;10.37;;
17524;SDS011;40431;52.198;9.902;2024-01-30T12:02:59;9.53;;;8.63;;
17524;SDS011;40431;52.198;9.902;2024-01-30T12:05:26;9.87;;;9.07;;
17524;SDS011;40431;52.198;9.902;2024-01-30T12:07:53;10.57;;;9.57;;
17524;SDS011;40431;52.198;9.902;2024-01-30T12:10:19;12.20;;;9.90;;
17524;SDS011;40431;52.198;9.902;2024-01-30T12:12:48;9.80;;;8.97;;
17524;SDS011;40431;52.198;9.902;2024-01-30T12:15:18;9.07;;;7.93;;
17524;SDS011;40431;52.198;9.902;2024-01-30T12:17:47;24.30;;;10.90;;
17524;SDS011;40431;52.198;9.902;2024-01-30T12:20:14;9.87;;;8.97;;
17524;SDS011;40431;52.198;9.902;2024-01-30T12:22:41;9.53;;;8.67;;
17524;SDS011;40431;52.198;9.902;2024-01-30T12:25:09;11.43;;;9.33;;
17524;SDS011;40431;52.198;9.902;2024-01-30T12:27:36;9.53;;;8.53;;
17524;SDS011;40431;52.198;9.902;2024-01-30T12:30:04;9.60;;;8.77;;
17524;SDS011;40431;52.198;9.902;2024-01-30T12:32:33;9.67;;;8.77;;
17524;SDS011;40431;52.198;9.902;2024-01-30T12:35:01;11.90;;;9.40;;
17524;SDS011;40431;52.198;9.902;2024-01-30T12:37:29;11.37;;;10.40;;
17524;SDS011;40431;52.198;9.902;2024-01-30T12:39:57;10.17;;;8.83;;
17524;SDS011;40431;52.198;9.902;2024-01-30T12:42:26;10.37;;;9.30;;
17524;SDS011;40431;52.198;9.902;2024-01-30T12:44:54;9.87;;;9.07;;
17524;SDS011;40431;52.198;9.902;2024-01-30T12:47:24;9.83;;;8.93;;
17524;SDS011;40431;52.198;9.902;2024-01-30T12:49:53;8.07;;;7.40;;
17524;SDS011;40431;52.198;9.902;2024-01-30T12:52:25;7.67;;;7.10;;
17524;SDS011;40431;52.198;9.902;2024-01-30T12:54:52;8.17;;;7.47;;
17524;SDS011;40431;52.198;9.902;2024-01-30T12:57:20;7.97;;;7.37;;
17524;SDS011;40431;52.198;9.902;2024-01-30T12:59:48;7.33;;;6.83;;
17524;SDS011;40431;52.198;9.902;2024-01-30T13:02:18;8.07;;;7.53;;
17524;SDS011;40431;52.198;9.902;2024-01-30T13:04:59;8.47;;;7.87;;
17524;SDS011;40431;52.198;9.902;2024-01-30T13:07:31;8.17;;;7.57;;
17524;SDS011;40431;52.198;9.902;2024-01-30T13:10:06;8.67;;;7.83;;
17524;SDS011;40431;52.198;9.902;2024-01-30T13:12:34;8.77;;;7.97;;
17524;SDS011;40431;52.198;9.902;2024-01-30T13:15:06;18.80;;;9.37;;
17524;SDS011;40431;52.198;9.902;2024-01-30T13:17:36;7.77;;;7.17;;
17524;SDS011;40431;52.198;9.902;2024-01-30T13:20:07;12.97;;;8.23;;
17524;SDS011;40431;52.198;9.902;2024-01-30T13:22:37;9.80;;;8.50;;
17524;SDS011;40431;52.198;9.902;2024-01-30T13:25:05;7.80;;;7.20;;
17524;SDS011;40431;52.198;9.902;2024-01-30T13:27:33;8.53;;;7.80;;
17524;SDS011;40431;52.198;9.902;2024-01-30T13:30:00;8.50;;;7.70;;
17524;SDS011;40431;52.198;9.902;2024-01-30T13:32:27;8.30;;;7.60;;
17524;SDS011;40431;52.198;9.902;2024-01-30T13:34:54;8.77;;;8.00;;
17524;SDS011;40431;52.198;9.902;2024-01-30T13:37:22;8.70;;;7.97;;
17524;SDS011;40431;52.198;9.902;2024-01-30T13:39:49;9.13;;;8.33;;
17524;SDS011;40431;52.198;9.902;2024-01-30T13:42:15;12.57;;;11.27;;
17524;SDS011;40431;52.198;9.902;2024-01-30T13:44:42;18.57;;;16.87;;
17524;SDS011;40431;52.198;9.902;2024-01-30T13:47:09;9.23;;;8.53;;
17524;SDS011;40431;52.198;9.902;2024-01-30T13:49:35;10.07;;;9.10;;
17524;SDS011;40431;52.198;9.902;2024-01-30T13:52:02;8.43;;;7.73;;
17524;SDS011;40431;52.198;9.902;2024-01-30T13:54:30;9.40;;;7.73;;
17524;SDS011;40431;52.198;9.902;2024-01-30T13:56:56;9.07;;;8.47;;
17524;SDS011;40431;52.198;9.902;2024-01-30T13:59:23;9.47;;;8.77;;
17524;SDS011;40431;52.198;9.902;2024-01-30T14:01:51;9.47;;;8.67;;
17524;SDS011;40431;52.198;9.902;2024-01-30T14:04:18;8.97;;;8.27;;
17524;SDS011;40431;52.198;9.902;2024-01-30T14:06:46;8.67;;;7.87;;
17524;SDS011;40431;52.198;9.902;2024-01-30T14:09:14;8.57;;;7.87;;
17524;SDS011;40431;52.198;9.902;2024-01-30T14:11:43;9.53;;;8.67;;
17524;SDS011;40431;52.198;9.902;2024-01-30T14:14:11;8.47;;;7.87;;
17524;SDS011;40431;52.198;9.902;2024-01-30T14:16:39;9.07;;;8.27;;
17524;SDS011;40431;52.198;9.902;2024-01-30T14:19:06;8.83;;;8.03;;
17524;SDS011;40431;52.198;9.902;2024-01-30T14:21:34;8.90;;;8.20;;
17524;SDS011;40431;52.198;9.902;2024-01-30T14:24:02;8.77;;;8.03;;
17524;SDS011;40431;52.198;9.902;2024-01-30T14:26:30;8.13;;;7.53;;
17524;SDS011;40431;52.198;9.902;2024-01-30T14:29:00;9.23;;;8.53;;
17524;SDS011;40431;52.198;9.902;2024-01-30T14:31:28;8.50;;;7.70;;
17524;SDS011;40431;52.198;9.902;2024-01-30T14:34:07;8.07;;;7.37;;